Augusta Regional At Bush Field
KAGS : now visible

Airfield :











YOU CAN JOIN US ON...

 
LOGIN :

Register | Disclaimer

   EN    FR    IT 

 









Legend :    VFR   Marginal VFR   IFR   Intensive IFR   Very Intensive IFR
Visi :
Ceiling :
>= 8 km
>= 3000ft
5 to 8 km
1000 to 3000 ft
1500m to 5 km
500 to 1000 ft
800 to 1500m
200 to 500 ft
< 800m
< 200 ft
Symbols :   Thunderstorms  Fog  Heavy snow  Heavy precipitations  Wind > 20 kt






- Airport Elevation : 144 ft
- IATA code : AGS


KAGS - Augusta Regional At Bush Field

CURRENT METAR :
  • 150453Z 26008KT 10SM CLR 07/04 A2996 RMK AO2 SLP144 T00720044 401390061

EXPIRED METARs :
  • 150353Z 25009KT 10SM CLR 08/05 A2994 RMK AO2 SLP138 T00780050
  • 150253Z 27005KT 10SM CLR 07/04 A2992 RMK AO2 SLP131 T00720044 51023

TAF KAGS
Valid from the 15 at 06:00 until the 16 at 06:00 UTC


150538Z 1506/1606 25005KT P6SM SCT150
TEMPO 1509/1512 00000KT 3SM BR
FM151400 23005KT P6SM SKC
FM160000 00000KT P6SM SCT250



MET'MAP, your aeronautical weather chart ! - Copyright ORBIFLY December 2007 - Disclaimer

ORBIFLY MET'MAP TEAM :

Programming & Development : Alexandra Zaïnal
Concept & original design : Baudouin d'Aumeries
Assistance for programming : Marc-Olivier Méhu
Technical & hardware support : Manuel Goepfert

Contact : metmap@orbifly.com




SOURCES & CREDITS :

   NOAA       Earth
Advisory